Time;durP1;ratioP1;P1;durP2;ratioP2;P2;SDS_P1;SDS_P2;PMS_P1;PMS_P2;Temp;Humidity;BMP_temperature;BMP_pressure;BME280_temperature;BME280_humidity;BME280_pressure;Samples;Min_cycle;Max_cycle;Signal;HPM_P1;HPM_P2
2022/11/21 00:01:26;;;;;;;;;;;;;;;18.70;53.81;99827.41;2337971;76;50809;-80
2022/11/21 00:04:28;;;;;;;;;;;;;;;18.73;53.76;99824.34;2337826;76;50447;-80
2022/11/21 00:07:29;;;;;;;;;;;;;;;18.69;53.79;99813.70;2314513;76;50434;-80
2022/11/21 00:10:31;;;;;;;;;;;;;;;18.62;53.90;99812.34;2290357;76;49532;-80
2022/11/21 00:13:32;;;;;;;;;;;;;;;18.60;54.01;99802.86;2315524;76;50743;-80
2022/11/21 00:16:34;;;;;;;;;;;;;;;18.61;54.04;99806.69;2337886;75;51578;-79
2022/11/21 00:19:36;;;;;;;;;;;;;;;18.66;54.02;99802.06;2337590;76;51562;-78
2022/11/21 00:22:37;;;;;;;;;;;;;;;18.70;53.94;99796.59;2314204;76;50982;-79
2022/11/21 00:25:39;;;;;;;;;;;;;;;18.75;53.86;99786.60;2337477;76;51832;-80
2022/11/21 00:28:40;;;;;;;;;;;;;;;18.69;53.91;99785.05;2337668;76;51514;-79
2022/11/21 00:31:42;;;;;;;;;;;;;;;18.64;53.97;99778.66;2315593;76;51540;-78
2022/11/21 00:34:43;;;;;;;;;;;;;;;18.59;54.13;99780.61;2314128;76;51019;-78
2022/11/21 00:37:47;;;;;;;;;;;;;;;18.60;54.14;99776.06;2313135;76;51538;-79
2022/11/21 00:40:48;;;;;;;;;;;;;;;18.62;54.13;99771.34;2316254;76;24270;-78
2022/11/21 00:43:50;;;;;;;;;;;;;;;18.64;54.12;99771.96;2316105;76;50746;-78
2022/11/21 00:46:51;;;;;;;;;;;;;;;18.69;54.04;99765.48;2286535;76;51020;-77
2022/11/21 00:49:53;;;;;;;;;;;;;;;18.70;54.02;99766.63;2314792;76;51579;-78
2022/11/21 00:52:58;;;;;;;;;;;;;;;18.68;53.97;99768.67;2315356;76;51462;-79
2022/11/21 00:55:59;;;;;;;;;;;;;;;18.62;54.07;99766.80;2337375;76;51546;-79
2022/11/21 00:59:01;;;;;;;;;;;;;;;18.58;54.18;99759.39;2289921;76;50996;-79
2022/11/21 01:02:04;;;;;;;;;;;;;;;18.60;54.20;99753.30;2315543;76;51611;-79
2022/11/21 01:05:05;;;;;;;;;;;;;;;18.64;54.21;99757.23;2337454;76;50437;-79
2022/11/21 01:08:07;;;;;;;;;;;;;;;18.66;54.13;99753.83;2316248;76;51606;-80
2022/11/21 01:11:10;;;;;;;;;;;;;;;18.64;54.17;99750.53;2291079;76;52500;-80
2022/11/21 01:14:11;;;;;;;;;;;;;;;18.58;54.27;99747.34;2317215;76;50478;-79
2022/11/21 01:17:13;;;;;;;;;;;;;;;18.53;54.39;99749.29;2336503;76;50457;-79
2022/11/21 01:20:14;;;;;;;;;;;;;;;18.53;54.57;99745.79;2331410;75;50418;-81
2022/11/21 01:23:16;;;;;;;;;;;;;;;18.58;54.52;99741.46;2297194;76;51134;-80
2022/11/21 01:26:19;;;;;;;;;;;;;;;18.63;54.45;99742.19;2338373;74;50485;-79
2022/11/21 01:29:20;;;;;;;;;;;;;;;18.64;54.41;99744.65;2337961;75;51631;-80
2022/11/21 01:32:22;;;;;;;;;;;;;;;18.61;54.46;99741.56;2337605;76;50303;-79
2022/11/21 01:35:24;;;;;;;;;;;;;;;18.55;54.52;99736.52;2315306;76;51453;-80
2022/11/21 01:38:26;;;;;;;;;;;;;;;18.52;54.66;99734.75;2316476;76;51546;-78
2022/11/21 01:41:33;;;;;;;;;;;;;;;18.54;54.65;99731.35;2337765;76;50457;-80
2022/11/21 01:44:52;;;;;;;;;;;;;;;18.58;54.64;99733.95;2315263;75;22819;-80
2022/11/21 01:47:53;;;;;;;;;;;;;;;18.62;54.56;99737.84;2337323;76;50819;-78
2022/11/21 01:50:56;;;;;;;;;;;;;;;18.65;54.50;99729.39;2337406;75;51490;-77
2022/11/21 01:53:59;;;;;;;;;;;;;;;18.66;54.46;99729.20;2337254;76;50824;-78
2022/11/21 01:57:05;;;;;;;;;;;;;;;18.64;54.47;99727.23;2337340;75;51555;-78
2022/11/21 02:00:20;;;;;;;;;;;;;;;18.58;54.55;99725.39;2337398;76;51615;-78
2022/11/21 02:03:21;;;;;;;;;;;;;;;18.55;54.73;99724.95;2336606;76;22296;-79
2022/11/21 02:06:22;;;;;;;;;;;;;;;18.53;54.84;99719.00;2337605;76;50415;-78
2022/11/21 02:09:24;;;;;;;;;;;;;;;18.56;54.87;99723.94;2338500;75;51502;-77
2022/11/21 02:12:33;;;;;;;;;;;;;;;18.62;54.74;99721.77;2315160;76;51619;-78
2022/11/21 02:15:35;;;;;;;;;;;;;;;18.62;54.65;99727.13;2337275;74;50436;-77
2022/11/21 02:18:36;;;;;;;;;;;;;;;18.56;54.71;99733.32;2338280;76;50269;-79
2022/11/21 02:21:39;;;;;;;;;;;;;;;18.52;54.76;99728.05;2337303;76;50452;-79
2022/11/21 02:24:49;;;;;;;;;;;;;;;18.49;54.90;99727.94;2314924;76;50126;-79
2022/11/21 02:27:52;;;;;;;;;;;;;;;18.54;54.91;99728.16;2336339;76;51469;-78
2022/11/21 02:30:53;;;;;;;;;;;;;;;18.57;54.81;99718.88;2330372;74;50858;-79
2022/11/21 02:33:55;;;;;;;;;;;;;;;18.62;54.67;99715.07;2337947;76;50688;-79
2022/11/21 02:36:56;;;;;;;;;;;;;;;18.61;54.61;99709.42;2290999;74;52547;-80
2022/11/21 02:39:58;;;;;;;;;;;;;;;18.58;54.65;99703.14;2338665;76;51756;-78
2022/11/21 02:43:01;;;;;;;;;;;;;;;18.52;54.77;99699.92;2337648;76;50710;-78
2022/11/21 02:46:03;;;;;;;;;;;;;;;18.52;54.83;99695.38;2338136;74;50860;-79
2022/11/21 02:49:06;;;;;;;;;;;;;;;18.56;54.76;99682.42;2313750;75;51711;-79
2022/11/21 02:52:08;;;;;;;;;;;;;;;18.60;54.67;99692.52;2337603;76;51586;-78
2022/11/21 02:55:14;;;;;;;;;;;;;;;18.60;54.65;99680.47;2315497;76;50293;-79
2022/11/21 02:58:13;;;;;;;;;;;;;;;18.60;54.63;99675.59;2334831;74;22352;-80
2022/11/21 03:01:15;;;;;;;;;;;;;;;18.56;54.67;99677.06;2314243;76;51676;-79
2022/11/21 03:04:16;;;;;;;;;;;;;;;18.50;54.73;99684.07;2334457;74;51776;-78
2022/11/21 03:07:18;;;;;;;;;;;;;;;18.49;54.81;99667.15;2337795;75;50795;-79
2022/11/21 03:10:19;;;;;;;;;;;;;;;18.54;54.75;99677.25;2316155;76;51429;-79
2022/11/21 03:13:21;;;;;;;;;;;;;;;18.56;54.76;99671.70;2316194;76;51056;-80
2022/11/21 03:16:22;;;;;;;;;;;;;;;18.58;54.68;99670.47;2321727;74;51485;-80
2022/11/21 03:19:24;;;;;;;;;;;;;;;18.61;54.63;99666.02;2339563;75;50406;-79
2022/11/21 03:22:26;;;;;;;;;;;;;;;18.61;54.57;99666.55;2335510;76;50522;-79
2022/11/21 03:25:27;;;;;;;;;;;;;;;18.56;54.60;99661.80;2314824;76;52261;-80
2022/11/21 03:28:29;;;;;;;;;;;;;;;18.50;54.66;99662.12;2316354;74;49937;-80
2022/11/21 03:31:30;;;;;;;;;;;;;;;18.47;54.74;99663.03;2313404;76;52005;-79
2022/11/21 03:34:32;;;;;;;;;;;;;;;18.49;54.74;99664.47;2338695;76;51952;-79
2022/11/21 03:37:33;;;;;;;;;;;;;;;18.52;54.75;99663.75;2290240;76;49599;-79
2022/11/21 03:40:35;;;;;;;;;;;;;;;18.57;54.63;99669.32;2337636;76;50434;-79
2022/11/21 03:43:37;;;;;;;;;;;;;;;18.55;54.61;99670.88;2337307;76;50406;-79
2022/11/21 03:46:39;;;;;;;;;;;;;;;18.52;54.61;99676.62;2316602;76;50704;-79
2022/11/21 03:49:40;;;;;;;;;;;;;;;18.48;54.68;99679.43;2314369;76;51780;-79
2022/11/21 03:52:42;;;;;;;;;;;;;;;18.47;54.74;99683.12;2315290;76;50432;-79
2022/11/21 03:55:44;;;;;;;;;;;;;;;18.48;54.77;99682.92;2337410;76;50429;-78
2022/11/21 03:58:45;;;;;;;;;;;;;;;18.55;54.66;99689.64;2337498;76;50400;-79
2022/11/21 04:01:47;;;;;;;;;;;;;;;18.59;54.64;99690.86;2313929;76;50128;-78
2022/11/21 04:04:48;;;;;;;;;;;;;;;18.59;54.61;99686.02;2316229;76;51502;-78
2022/11/21 04:07:50;;;;;;;;;;;;;;;18.56;54.60;99693.95;2337953;76;51543;-80
2022/11/21 04:10:52;;;;;;;;;;;;;;;18.52;54.61;99686.52;2337724;76;51283;-80
2022/11/21 04:13:53;;;;;;;;;;;;;;;18.48;54.76;99690.96;2289849;76;51299;-80
2022/11/21 04:16:55;;;;;;;;;;;;;;;18.50;54.83;99690.77;2337806;76;50437;-79
2022/11/21 04:19:57;;;;;;;;;;;;;;;18.52;54.80;99684.66;2337664;76;50426;-79
2022/11/21 04:22:58;;;;;;;;;;;;;;;18.55;54.70;99684.77;2315874;76;50697;-79
2022/11/21 04:26:00;;;;;;;;;;;;;;;18.52;54.69;99686.52;2338038;76;50788;-79
2022/11/21 04:29:01;;;;;;;;;;;;;;;18.47;54.75;99692.00;2332395;74;50438;-79
2022/11/21 04:32:03;;;;;;;;;;;;;;;18.44;54.89;99690.23;2338239;76;50746;-79
2022/11/21 04:35:05;;;;;;;;;;;;;;;18.44;54.92;99687.03;2337974;76;50485;-80
2022/11/21 04:38:06;;;;;;;;;;;;;;;18.46;54.88;99691.67;2290093;76;51723;-80
2022/11/21 04:41:08;;;;;;;;;;;;;;;18.52;54.81;99689.20;2331827;76;50454;-80
2022/11/21 04:44:09;;;;;;;;;;;;;;;18.56;54.70;99691.27;2325143;76;50401;-79
2022/11/21 04:47:11;;;;;;;;;;;;;;;18.60;54.64;99688.99;2315620;76;50785;-79
2022/11/21 04:50:13;;;;;;;;;;;;;;;18.57;54.63;99692.09;2338872;76;50705;-80
2022/11/21 04:53:15;;;;;;;;;;;;;;;18.53;54.63;99684.99;2338834;76;50810;-78
2022/11/21 04:56:17;;;;;;;;;;;;;;;18.48;54.68;99688.28;2339309;76;50474;-79
2022/11/21 04:59:18;;;;;;;;;;;;;;;18.46;54.86;99687.66;2340928;74;50788;-78
2022/11/21 05:02:20;;;;;;;;;;;;;;;18.48;54.82;99685.60;2315231;76;51725;-77
2022/11/21 05:05:21;;;;;;;;;;;;;;;18.52;54.83;99690.55;2315796;76;50658;-77
2022/11/21 05:08:23;;;;;;;;;;;;;;;18.53;54.75;99692.21;2322271;76;51819;-77
2022/11/21 05:14:44;;;;;;;;;;;;;;;18.42;54.85;99676.21;2320994;76;22369;-78
2022/11/21 05:17:45;;;;;;;;;;;;;;;18.40;55.02;99682.31;2316545;76;50478;-77
2022/11/21 05:20:47;;;;;;;;;;;;;;;18.41;55.04;99687.45;2337748;75;50673;-77
2022/11/21 05:23:49;;;;;;;;;;;;;;;18.44;55.00;99687.03;2315875;74;50669;-77
2022/11/21 05:26:50;;;;;;;;;;;;;;;18.49;54.96;99696.62;2290384;75;50972;-77
2022/11/21 05:29:53;;;;;;;;;;;;;;;18.55;54.83;99699.50;2315792;76;50742;-77
2022/11/21 05:32:55;;;;;;;;;;;;;;;18.53;54.81;99690.88;2337827;76;50436;-77
2022/11/21 05:35:56;;;;;;;;;;;;;;;18.47;54.86;99700.04;2315574;76;50937;-77
2022/11/21 05:38:58;;;;;;;;;;;;;;;18.43;54.96;99697.45;2290139;76;51688;-77
2022/11/21 05:41:59;;;;;;;;;;;;;;;18.42;55.07;99694.47;2316871;76;50669;-77
2022/11/21 05:45:01;;;;;;;;;;;;;;;18.46;55.02;99701.05;2337593;76;51557;-77
2022/11/21 05:48:06;;;;;;;;;;;;;;;18.49;54.98;99693.12;2316075;76;49961;-80
2022/11/21 05:51:06;;;;;;;;;;;;;;;18.52;54.89;99687.34;2338574;76;22228;-81
2022/11/21 05:54:09;;;;;;;;;;;;;;;18.51;54.86;99685.70;2316279;76;50709;-81
2022/11/21 05:57:11;;;;;;;;;;;;;;;18.46;54.93;99686.32;2337569;74;50810;-80
2022/11/21 06:00:13;;;;;;;;;;;;;;;18.43;54.98;99685.39;2325382;75;50221;-80
2022/11/21 06:03:27;;;;;;;;;;;;;;;18.42;55.08;99681.57;2338085;76;51470;-80
2022/11/21 06:06:28;;;;;;;;;;;;;;;18.46;55.00;99682.82;2318232;76;51575;-79
2022/11/21 06:09:30;;;;;;;;;;;;;;;18.50;54.94;99689.43;2338034;76;51497;-79
2022/11/21 06:12:31;;;;;;;;;;;;;;;18.55;54.86;99695.48;2316645;76;51572;-80
2022/11/21 06:15:33;;;;;;;;;;;;;;;18.56;54.82;99697.97;2293887;76;52376;-79
2022/11/21 06:18:38;;;;;;;;;;;;;;;18.60;54.75;99695.20;2337731;76;51445;-80
2022/11/21 06:21:40;;;;;;;;;;;;;;;18.61;54.67;99696.84;2337605;76;51561;-80
2022/11/21 06:24:42;;;;;;;;;;;;;;;18.58;54.68;99697.78;2315352;76;51553;-80
2022/11/21 06:27:43;;;;;;;;;;;;;;;18.59;54.77;99698.07;2290131;76;50986;-80
2022/11/21 06:30:45;;;;;;;;;;;;;;;18.61;54.75;99700.04;2316617;75;51480;-80
2022/11/21 06:33:46;;;;;;;;;;;;;;;18.65;54.65;99702.10;2337673;76;52138;-80
2022/11/21 06:36:49;;;;;;;;;;;;;;;18.68;54.61;99696.84;2336470;76;50791;-80
2022/11/21 06:39:51;;;;;;;;;;;;;;;18.63;54.63;99696.13;2290114;74;51370;-78
2022/11/21 06:42:52;;;;;;;;;;;;;;;18.58;54.81;99698.59;2338367;76;50430;-79
2022/11/21 06:45:55;;;;;;;;;;;;;;;18.55;54.82;99699.50;2315055;76;50315;-79
2022/11/21 06:48:57;;;;;;;;;;;;;;;18.49;55.01;99699.81;2337670;76;50107;-77
2022/11/21 06:51:59;;;;;;;;;;;;;;;18.43;55.27;99704.14;2315336;76;51159;-79
2022/11/21 06:55:00;;;;;;;;;;;;;;;18.38;55.46;99699.92;2315484;76;51467;-82
2022/11/21 06:58:02;;;;;;;;;;;;;;;18.35;55.62;99698.17;2337967;76;51531;-83
2022/11/21 07:01:05;;;;;;;;;;;;;;;18.30;55.90;99704.14;2337861;76;50740;-82
2022/11/21 07:04:07;;;;;;;;;;;;;;;18.33;56.04;99710.42;2313818;75;51787;-82
2022/11/21 07:07:08;;;;;;;;;;;;;;;18.35;56.00;99716.41;2315786;76;50575;-82
2022/11/21 07:10:10;;;;;;;;;;;;;;;18.40;55.98;99717.95;2317022;76;50444;-81
2022/11/21 07:13:20;;;;;;;;;;;;;;;18.44;56.10;99716.50;2339855;75;50369;-83
2022/11/21 07:16:24;;;;;;;;;;;;;;;18.48;56.04;99724.97;2317688;76;51685;-82
2022/11/21 07:19:25;;;;;;;;;;;;;;;18.55;55.96;99732.98;2339179;76;22054;-82
2022/11/21 07:22:27;;;;;;;;;;;;;;;18.56;55.70;99733.32;2340227;74;50520;-81
2022/11/21 07:25:28;;;;;;;;;;;;;;;18.60;55.57;99741.23;2310881;76;50450;-82
2022/11/21 07:28:30;;;;;;;;;;;;;;;18.55;55.51;99732.50;2314490;76;51703;-82
2022/11/21 07:31:31;;;;;;;;;;;;;;;18.49;55.48;99746.17;2316585;75;50891;-81
2022/11/21 07:34:34;;;;;;;;;;;;;;;18.45;55.51;99739.59;2315517;76;50174;-81
2022/11/21 07:37:39;;;;;;;;;;;;;;;18.42;55.46;99741.84;2287824;76;51201;-81
2022/11/21 07:40:40;;;;;;;;;;;;;;;18.36;55.51;99735.97;2343244;73;51584;-80
2022/11/21 07:43:42;;;;;;;;;;;;;;;18.32;55.49;99748.95;2311799;76;51348;-81
2022/11/21 07:46:43;;;;;;;;;;;;;;;18.26;55.64;99749.75;2338846;74;50351;-82
2022/11/21 07:49:45;;;;;;;;;;;;;;;18.30;55.63;99757.70;2338757;76;50437;-81
2022/11/21 07:52:47;;;;;;;;;;;;;;;18.33;55.50;99751.93;2290975;76;50082;-81
2022/11/21 07:55:48;;;;;;;;;;;;;;;18.37;55.44;99757.69;2316277;76;50708;-82
2022/11/21 07:58:51;;;;;;;;;;;;;;;18.40;55.45;99760.81;2316804;75;51884;-81
2022/11/21 08:01:52;;;;;;;;;;;;;;;18.47;55.36;99760.80;2318224;76;51216;-81
2022/11/21 08:04:54;;;;;;;;;;;;;;;18.52;55.33;99768.23;2313379;74;50488;-82
2022/11/21 08:07:56;;;;;;;;;;;;;;;18.58;55.17;99766.09;2286721;76;50505;-80
2022/11/21 08:10:57;;;;;;;;;;;;;;;18.61;55.15;99767.02;2314391;75;50665;-82
2022/11/21 08:13:59;;;;;;;;;;;;;;;18.66;54.95;99773.93;2318978;76;50778;-82
2022/11/21 08:17:00;;;;;;;;;;;;;;;18.61;55.00;99773.72;2326980;74;51008;-81
2022/11/21 08:20:03;;;;;;;;;;;;;;;18.55;55.22;99778.53;2340041;76;50377;-82
2022/11/21 08:23:05;;;;;;;;;;;;;;;18.47;55.27;99779.06;2339998;75;50804;-82
2022/11/21 08:26:09;;;;;;;;;;;;;;;18.42;55.36;99776.66;2342956;74;50484;-82
2022/11/21 08:29:11;;;;;;;;;;;;;;;18.36;55.46;99775.62;2294338;76;51058;-79
2022/11/21 08:32:13;;;;;;;;;;;;;;;18.32;55.61;99776.25;2315455;75;50661;-79
2022/11/21 08:35:14;;;;;;;;;;;;;;;18.33;55.44;99786.74;2337739;76;50704;-80
2022/11/21 08:38:16;;;;;;;;;;;;;;;18.31;55.53;99783.95;2315618;76;50397;-79
2022/11/21 08:44:38;;;;;;;;;;;;;;;18.36;55.38;99797.05;2319208;76;22403;-79
2022/11/21 08:47:40;;;;;;;;;;;;;;;18.42;55.17;99802.10;2315982;76;50257;-80
2022/11/21 08:50:41;;;;;;;;;;;;;;;18.44;55.06;99797.38;2316074;76;51550;-79
2022/11/21 08:53:43;;;;;;;;;;;;;;;18.48;54.91;99807.48;2337892;76;50224;-80
2022/11/21 08:56:45;;;;;;;;;;;;;;;18.53;54.77;99806.06;2338227;75;50413;-79
2022/11/21 08:59:46;;;;;;;;;;;;;;;18.57;54.65;99809.97;2338790;76;50284;-79
2022/11/21 09:02:48;;;;;;;;;;;;;;;18.57;54.55;99816.67;2338650;76;50351;-80
2022/11/21 09:05:49;;;;;;;;;;;;;;;18.58;54.71;99818.34;2314304;76;51648;-77
2022/11/21 09:08:51;;;;;;;;;;;;;;;18.52;54.79;99811.09;2316349;76;51622;-80
2022/11/21 09:11:53;;;;;;;;;;;;;;;18.45;54.98;99815.12;2337777;76;50354;-78
2022/11/21 09:18:13;;;;;;;;;;;;;;;18.33;55.20;99816.20;2269682;77;22993;-78
2022/11/21 09:21:15;;;;;;;;;;;;;;;18.28;55.33;99820.81;2313801;76;51691;-79
2022/11/21 09:24:16;;;;;;;;;;;;;;;18.27;55.29;99825.05;2317701;75;50717;-80
2022/11/21 09:27:18;;;;;;;;;;;;;;;18.26;55.36;99827.40;2338576;75;51582;-79
2022/11/21 09:30:19;;;;;;;;;;;;;;;18.27;55.41;99837.11;2290056;76;51009;-79
2022/11/21 09:33:21;;;;;;;;;;;;;;;18.31;55.32;99835.66;2337729;76;51512;-79
2022/11/21 09:36:23;;;;;;;;;;;;;;;18.34;55.21;99833.94;2337908;75;50734;-79
2022/11/21 09:39:24;;;;;;;;;;;;;;;18.42;55.02;99832.91;2315824;76;51491;-80
2022/11/21 09:42:27;;;;;;;;;;;;;;;18.44;54.92;99837.55;2314804;75;49709;-80
2022/11/21 09:45:32;;;;;;;;;;;;;;;18.46;54.86;99834.98;2338539;76;50415;-79
2022/11/21 09:48:35;;;;;;;;;;;;;;;18.50;54.70;99839.44;2338504;76;23975;-79
2022/11/21 09:51:37;;;;;;;;;;;;;;;18.55;54.61;99838.81;2338145;76;50459;-79
2022/11/21 09:54:40;;;;;;;;;;;;;;;18.54;54.50;99847.37;2338006;76;50301;-79
2022/11/21 09:57:42;;;;;;;;;;;;;;;18.52;54.50;99851.28;2337952;75;51579;-80
2022/11/21 10:00:43;;;;;;;;;;;;;;;18.43;54.61;99845.29;2338197;76;51611;-79
2022/11/21 10:03:46;;;;;;;;;;;;;;;18.38;54.67;99847.22;2340159;75;51543;-78
2022/11/21 10:06:49;;;;;;;;;;;;;;;18.32;54.81;99854.73;2372416;74;50128;-79
2022/11/21 10:09:58;;;;;;;;;;;;;;;18.26;55.03;99850.16;2340612;75;50749;-79
2022/11/21 10:13:01;;;;;;;;;;;;;;;18.21;55.13;99850.79;2339809;76;50556;-79
2022/11/21 10:16:05;;;;;;;;;;;;;;;18.18;55.25;99855.70;2338871;75;51631;-79
2022/11/21 10:19:08;;;;;;;;;;;;;;;18.16;55.35;99860.42;2337642;76;52352;-79
2022/11/21 10:22:26;;;;;;;;;;;;;;;18.19;55.33;99859.53;2339992;76;50328;-78
2022/11/21 10:25:30;;;;;;;;;;;;;;;18.21;55.32;99871.36;2339532;76;50724;-78
2022/11/21 10:28:33;;;;;;;;;;;;;;;18.22;55.19;99877.86;2316646;75;50732;-79
2022/11/21 10:31:36;;;;;;;;;;;;;;;18.26;55.10;99875.60;2269018;77;49860;-78
2022/11/21 10:34:37;;;;;;;;;;;;;;;18.30;55.00;99886.24;2291208;77;51521;-79
2022/11/21 10:37:40;;;;;;;;;;;;;;;18.35;54.85;99886.98;2291634;77;50314;-79
2022/11/21 10:40:43;;;;;;;;;;;;;;;18.39;54.78;99897.08;2292077;76;50820;-79
2022/11/21 10:47:13;;;;;;;;;;;;;;;18.38;54.66;99890.08;2315474;76;22452;-79
2022/11/21 10:50:22;;;;;;;;;;;;;;;18.33;54.73;99883.16;2338406;76;50324;-79
2022/11/21 10:56:43;;;;;;;;;;;;;;;18.26;54.83;99886.31;2338176;76;22550;-78
2022/11/21 10:59:59;;;;;;;;;;;;;;;18.20;54.88;99892.48;2337818;76;50286;-79
2022/11/21 11:03:04;;;;;;;;;;;;;;;18.14;54.96;99894.63;2333521;75;52142;-78
2022/11/21 11:06:06;;;;;;;;;;;;;;;18.08;55.12;99893.54;2337621;76;50883;-78
2022/11/21 11:09:09;;;;;;;;;;;;;;;18.07;55.25;99894.58;2314386;76;51171;-78
2022/11/21 11:12:24;;;;;;;;;;;;;;;18.10;55.21;99896.03;2337032;75;50540;-79
2022/11/21 11:15:26;;;;;;;;;;;;;;;18.15;55.08;99898.94;2337542;76;51590;-79
2022/11/21 11:18:27;;;;;;;;;;;;;;;18.22;54.95;99897.13;2338064;74;50486;-79
2022/11/21 11:21:30;;;;;;;;;;;;;;;18.28;54.82;99901.67;2316556;76;51707;-79
2022/11/21 11:24:31;;;;;;;;;;;;;;;18.32;54.69;99902.95;2337454;76;50412;-79
2022/11/21 11:27:33;;;;;;;;;;;;;;;18.39;54.56;99909.13;2337509;76;51486;-79
2022/11/21 11:30:36;;;;;;;;;;;;;;;18.41;54.54;99910.28;2290169;75;52382;-79
2022/11/21 11:33:38;;;;;;;;;;;;;;;18.40;54.53;99905.44;2313855;76;50328;-79
2022/11/21 11:36:47;;;;;;;;;;;;;;;18.38;54.53;99903.99;2337636;76;51536;-79
2022/11/21 11:40:00;;;;;;;;;;;;;;;18.33;54.61;99904.59;2337665;76;50464;-79
2022/11/21 11:50:13;;;;;;;;;;;;;;;18.16;54.89;99909.47;2340565;75;23515;-79
2022/11/21 11:53:17;;;;;;;;;;;;;;;18.11;55.06;99910.57;2340036;75;50874;-79
2022/11/21 11:56:23;;;;;;;;;;;;;;;18.08;55.20;99901.57;2309148;76;51558;-79
2022/11/21 11:59:32;;;;;;;;;;;;;;;18.10;55.21;99894.17;2259095;78;49646;-79
2022/11/21 12:02:35;;;;;;;;;;;;;;;18.15;55.14;99898.94;2285091;76;50833;-78
2022/11/21 12:05:37;;;;;;;;;;;;;;;18.22;55.03;99886.42;2283971;76;50799;-80
2022/11/21 12:08:47;;;;;;;;;;;;;;;18.31;54.89;99885.72;2320929;76;50397;-78
2022/11/21 12:12:08;;;;;;;;;;;;;;;18.38;54.78;99893.28;2277801;77;51232;-78
2022/11/21 12:18:39;;;;;;;;;;;;;;;18.51;55.08;99906.72;2333440;76;22564;-78
2022/11/21 12:21:41;;;;;;;;;;;;;;;18.50;55.63;99908.58;2337403;74;51603;-77
2022/11/21 12:24:42;;;;;;;;;;;;;;;18.46;55.85;99901.13;2317729;76;51220;-78
2022/11/21 12:27:44;;;;;;;;;;;;;;;18.42;56.11;99906.08;2340114;75;50222;-77
2022/11/21 12:30:47;;;;;;;;;;;;;;;18.38;56.21;99902.13;2338347;76;50437;-78
2022/11/21 12:33:50;;;;;;;;;;;;;;;18.32;56.32;99896.77;2338760;76;50450;-79
2022/11/21 12:36:59;;;;;;;;;;;;;;;18.28;56.74;99897.66;2313262;76;51313;-79
2022/11/21 12:40:02;;;;;;;;;;;;;;;18.22;57.27;99895.79;2340967;76;51561;-77
2022/11/21 12:43:15;;;;;;;;;;;;;;;18.25;57.28;99891.37;2336822;74;51551;-78
2022/11/21 12:46:21;;;;;;;;;;;;;;;18.32;57.27;99886.87;2338344;75;51472;-79
2022/11/21 12:56:20;;;;;;;;;;;;;;;18.41;57.50;99890.19;2338854;74;22270;-77
2022/11/21 12:59:22;;;;;;;;;;;;;;;18.42;57.58;99884.65;2337627;76;52289;-77
2022/11/21 13:02:28;;;;;;;;;;;;;;;18.50;57.56;99887.14;2314038;76;52637;-76
2022/11/21 13:05:31;;;;;;;;;;;;;;;18.52;57.53;99883.42;2337024;75;51532;-77
2022/11/21 13:08:35;;;;;;;;;;;;;;;18.48;57.63;99885.69;2314152;75;51093;-77
2022/11/21 13:14:59;;;;;;;;;;;;;;;18.42;57.73;99883.31;2337431;76;24504;-76
2022/11/21 13:18:14;;;;;;;;;;;;;;;18.38;57.94;99868.66;2316260;74;52398;-76
2022/11/21 13:21:34;;;;;;;;;;;;;;;18.33;57.99;99869.77;2338999;75;50710;-76
2022/11/21 13:24:47;;;;;;;;;;;;;;;18.26;58.22;99863.06;2339060;74;50499;-76
2022/11/21 13:27:48;;;;;;;;;;;;;;;18.22;58.60;99870.35;2338081;76;51648;-77
2022/11/21 13:30:50;;;;;;;;;;;;;;;18.19;58.85;99868.90;2337314;75;52414;-76
2022/11/21 13:33:52;;;;;;;;;;;;;;;18.24;58.74;99873.66;2337295;76;50799;-78
2022/11/21 13:36:53;;;;;;;;;;;;;;;18.26;59.27;99872.92;2332505;74;50448;-77
2022/11/21 13:39:55;;;;;;;;;;;;;;;18.04;53.17;99862.86;2337347;74;50277;-76
2022/11/21 13:43:08;;;;;;;;;;;;;;;17.99;51.72;99866.64;2285781;75;51759;-77
2022/11/21 13:46:10;;;;;;;;;;;;;;;18.02;52.41;99866.23;2329134;74;50321;-77
2022/11/21 13:49:12;;;;;;;;;;;;;;;18.14;52.62;99868.67;2338124;76;50973;-76
2022/11/21 13:52:21;;;;;;;;;;;;;;;18.19;52.85;99863.55;2339263;75;50806;-77
2022/11/21 13:55:41;;;;;;;;;;;;;;;18.26;53.07;99861.73;2334416;74;51561;-77
2022/11/21 13:58:45;;;;;;;;;;;;;;;18.30;53.29;99855.45;2338024;76;51527;-77
2022/11/21 14:01:48;;;;;;;;;;;;;;;18.34;53.48;99854.52;2337477;76;50248;-75
2022/11/21 14:04:51;;;;;;;;;;;;;;;18.40;53.58;99845.70;2337076;76;50447;-76
2022/11/21 14:07:52;;;;;;;;;;;;;;;18.47;53.65;99851.39;2315003;76;51277;-75
2022/11/21 14:10:54;;;;;;;;;;;;;;;18.51;53.77;99851.80;2337173;76;50806;-75
2022/11/21 14:13:56;;;;;;;;;;;;;;;18.57;53.82;99842.94;2314929;76;51490;-77
2022/11/21 14:17:02;;;;;;;;;;;;;;;18.62;53.83;99836.98;2337264;76;51601;-76
2022/11/21 14:20:08;;;;;;;;;;;;;;;18.62;53.84;99845.02;2312779;75;51258;-76
2022/11/21 14:23:20;;;;;;;;;;;;;;;18.59;54.01;99836.88;2326818;76;50347;-75
2022/11/21 14:26:24;;;;;;;;;;;;;;;18.52;54.24;99840.05;2337654;75;51586;-76
2022/11/21 14:29:28;;;;;;;;;;;;;;;18.47;54.45;99833.13;2337890;76;22790;-75
2022/11/21 14:32:30;;;;;;;;;;;;;;;18.40;54.69;99833.64;2313917;76;52411;-77
2022/11/21 14:35:31;;;;;;;;;;;;;;;18.32;54.92;99831.97;2337216;75;51454;-76
2022/11/21 14:38:43;;;;;;;;;;;;;;;18.25;55.17;99831.94;2337368;75;50723;-76
2022/11/21 14:41:47;;;;;;;;;;;;;;;18.21;55.51;99826.69;2337330;76;50705;-75
2022/11/21 14:44:48;;;;;;;;;;;;;;;18.24;55.61;99817.43;2315000;76;49906;-76
2022/11/21 14:47:50;;;;;;;;;;;;;;;18.30;55.56;99815.27;2315226;76;50711;-75
2022/11/21 14:50:52;;;;;;;;;;;;;;;18.36;55.51;99815.80;2337430;76;50311;-75
2022/11/21 14:53:53;;;;;;;;;;;;;;;18.43;55.43;99819.84;2337331;75;50248;-77
2022/11/21 14:56:59;;;;;;;;;;;;;;;18.48;55.38;99826.76;2338426;76;50277;-77
2022/11/21 15:00:00;;;;;;;;;;;;;;;18.53;55.26;99828.84;2342919;74;50391;-75
2022/11/21 15:03:02;;;;;;;;;;;;;;;18.50;55.28;99844.28;2339788;76;50409;-77
2022/11/21 15:06:04;;;;;;;;;;;;;;;18.48;55.28;99846.84;2339096;74;50340;-76
2022/11/21 15:09:06;;;;;;;;;;;;;;;18.42;55.50;99843.13;2317567;76;51583;-78
2022/11/21 15:12:08;;;;;;;;;;;;;;;18.36;55.55;99851.13;2339698;75;51598;-76
2022/11/21 15:15:28;;;;;;;;;;;;;;;18.30;55.98;99848.75;2339759;74;50449;-77
2022/11/21 15:18:30;;;;;;;;;;;;;;;18.27;56.31;99851.83;2337950;76;50345;-77
2022/11/21 15:21:32;;;;;;;;;;;;;;;18.20;56.86;99846.95;2315352;75;51156;-77
2022/11/21 15:24:41;;;;;;;;;;;;;;;18.13;57.22;99855.47;2315425;76;51466;-78
2022/11/21 15:27:44;;;;;;;;;;;;;;;18.12;57.39;99851.97;2336197;74;51629;-78
2022/11/21 15:30:45;;;;;;;;;;;;;;;18.13;57.54;99850.11;2337874;75;50790;-77
2022/11/21 15:33:59;;;;;;;;;;;;;;;18.13;57.59;99839.41;2313099;76;52540;-77
2022/11/21 15:37:03;;;;;;;;;;;;;;;18.22;57.50;99842.23;2315411;76;50845;-77
2022/11/21 15:40:05;;;;;;;;;;;;;;;18.33;57.14;99845.66;2336706;76;51599;-79
2022/11/21 15:43:08;;;;;;;;;;;;;;;18.36;57.18;99841.76;2337614;76;51483;-78
2022/11/21 15:46:14;;;;;;;;;;;;;;;18.40;57.00;99833.13;2313670;75;52456;-80
2022/11/21 15:49:16;;;;;;;;;;;;;;;18.38;57.01;99837.85;2337730;76;51625;-79
2022/11/21 15:52:18;;;;;;;;;;;;;;;18.48;56.75;99831.59;2337727;76;50968;-78
2022/11/21 15:55:24;;;;;;;;;;;;;;;18.55;56.53;99830.77;2337760;75;50403;-78
2022/11/21 15:58:26;;;;;;;;;;;;;;;18.57;56.46;99836.77;2314886;76;51287;-78
2022/11/21 16:01:31;;;;;;;;;;;;;;;18.50;56.58;99831.41;2337978;76;50379;-77
2022/11/21 16:04:33;;;;;;;;;;;;;;;18.47;56.68;99823.27;2337619;76;51564;-77
2022/11/21 16:07:35;;;;;;;;;;;;;;;18.46;56.69;99825.61;2315135;75;50960;-78
2022/11/21 16:10:36;;;;;;;;;;;;;;;18.37;56.87;99828.18;2313941;76;51720;-77
2022/11/21 16:13:38;;;;;;;;;;;;;;;18.36;57.00;99821.16;2337287;76;51458;-76
2022/11/21 16:16:40;;;;;;;;;;;;;;;18.33;57.17;99821.56;2337511;76;51500;-79
2022/11/21 16:19:42;;;;;;;;;;;;;;;18.30;57.39;99834.02;2315703;76;50321;-77
2022/11/21 16:22:43;;;;;;;;;;;;;;;18.35;57.10;99830.23;2289767;76;51241;-77
2022/11/21 16:25:52;;;;;;;;;;;;;;;18.39;57.01;99822.08;2313864;74;50625;-78
2022/11/21 16:28:54;;;;;;;;;;;;;;;18.44;57.15;99821.48;2315892;76;51107;-80
2022/11/21 16:31:56;;;;;;;;;;;;;;;18.46;57.61;99820.25;2337567;74;50720;-79